createdAt,value
2023-04-01T00:04:48.020Z,2.28
2023-04-01T00:11:49.730Z,2.38
2023-04-01T00:18:51.569Z,2.40
2023-04-01T00:25:53.297Z,2.65
2023-04-01T00:32:54.910Z,2.42
2023-04-01T00:39:56.579Z,2.42
2023-04-01T00:46:58.355Z,2.50
2023-04-01T00:54:00.225Z,2.45
2023-04-01T01:01:01.891Z,2.53
2023-04-01T01:08:18.648Z,2.78
2023-04-01T01:15:28.117Z,2.80
2023-04-01T01:22:44.847Z,2.65
2023-04-01T01:30:08.734Z,2.65
2023-04-01T01:37:13.053Z,3.10
2023-04-01T01:44:14.758Z,3.00
2023-04-01T01:51:16.498Z,3.33
2023-04-01T01:58:25.580Z,2.53
2023-04-01T02:05:28.019Z,2.70
2023-04-01T02:12:35.892Z,2.45
2023-04-01T02:19:40.067Z,2.28
2023-04-01T02:26:41.944Z,3.38
2023-04-01T02:33:43.530Z,2.10
2023-04-01T02:40:50.538Z,2.30
2023-04-01T02:47:52.123Z,2.10
2023-04-01T02:54:54.124Z,2.40
2023-04-01T03:01:56.062Z,2.22
2023-04-01T03:08:57.772Z,2.20
2023-04-01T03:15:59.726Z,2.28
2023-04-01T03:23:01.391Z,2.28
2023-04-01T03:30:07.270Z,2.53
2023-04-01T03:37:15.534Z,2.45
2023-04-01T03:44:17.122Z,2.85
2023-04-01T03:51:21.478Z,2.60
2023-04-01T03:58:23.203Z,2.55
2023-04-01T04:05:26.001Z,2.20
2023-04-01T04:12:27.704Z,3.20
2023-04-01T04:19:34.760Z,2.45
2023-04-01T04:26:37.070Z,2.63
2023-04-01T04:33:38.745Z,2.80
2023-04-01T04:40:41.125Z,3.40
2023-04-01T04:47:42.873Z,2.45
2023-04-01T04:54:45.090Z,2.60
2023-04-01T05:01:47.051Z,2.85
2023-04-01T05:08:49.172Z,3.00
2023-04-01T05:15:50.933Z,3.20
2023-04-01T05:22:57.101Z,3.17
2023-04-01T05:29:58.968Z,3.10
2023-04-01T05:37:39.079Z,3.00
2023-04-01T05:44:40.801Z,2.88
2023-04-01T05:51:42.338Z,3.10
2023-04-01T05:58:44.557Z,2.80
2023-04-01T06:05:46.315Z,2.85
2023-04-01T06:12:58.415Z,2.70
2023-04-01T06:20:26.734Z,3.45
2023-04-01T06:27:47.308Z,3.05
2023-04-01T06:35:02.068Z,4.88
2023-04-01T06:42:15.630Z,3.80
2023-04-01T06:49:51.542Z,4.18
2023-04-01T06:57:31.190Z,3.10
2023-04-01T07:04:35.717Z,3.22
2023-04-01T07:11:38.520Z,3.58
2023-04-01T07:26:36.412Z,3.70
2023-04-01T07:33:59.048Z,4.15
2023-04-01T07:41:13.625Z,3.80
2023-04-01T07:48:32.679Z,4.03
2023-04-01T07:55:46.686Z,3.40
2023-04-01T08:02:52.860Z,3.03
2023-04-01T08:10:33.684Z,2.97
2023-04-01T08:18:15.433Z,2.50
2023-04-01T08:25:27.943Z,3.53
2023-04-01T08:32:35.405Z,4.35
2023-04-01T08:39:39.446Z,4.35
2023-04-01T08:46:59.850Z,4.47
2023-04-01T08:54:18.300Z,4.65
2023-04-01T09:01:47.720Z,4.57
2023-04-01T09:09:39.830Z,4.80
2023-04-01T09:17:08.939Z,4.85
2023-04-01T09:24:24.582Z,5.10
2023-04-01T09:31:53.883Z,5.03
2023-04-01T09:39:38.350Z,6.78
2023-04-01T09:47:07.311Z,6.05
2023-04-01T09:54:36.086Z,5.15
2023-04-01T10:01:53.656Z,5.68
2023-04-01T10:09:21.868Z,5.57
2023-04-01T10:16:41.507Z,5.13
2023-04-01T10:24:07.530Z,5.70
2023-04-01T10:31:21.935Z,3.88
2023-04-01T10:38:51.273Z,3.65
2023-04-01T10:46:36.482Z,5.13
2023-04-01T10:53:47.061Z,3.72
2023-04-01T11:01:17.414Z,3.78
2023-04-01T11:09:10.323Z,2.85
2023-04-01T11:16:31.128Z,2.45
2023-04-01T11:24:11.762Z,3.10
2023-04-01T11:32:01.924Z,2.80
2023-04-01T11:39:11.375Z,2.78
2023-04-01T11:46:59.667Z,2.15
2023-04-01T11:54:36.352Z,2.85
2023-04-01T12:01:44.054Z,3.00
2023-04-01T12:08:57.785Z,2.90
2023-04-01T12:16:35.132Z,3.80
2023-04-01T12:24:13.363Z,3.45
2023-04-01T12:31:29.696Z,4.22
2023-04-01T12:39:21.240Z,2.78
2023-04-01T12:46:43.796Z,3.30
2023-04-01T12:54:27.099Z,3.60
2023-04-01T13:02:14.901Z,3.90
2023-04-01T13:09:25.909Z,4.47
2023-04-01T13:16:32.210Z,5.07
2023-04-01T13:24:01.676Z,4.32
2023-04-01T13:31:06.830Z,5.03
2023-04-01T13:38:40.626Z,3.88
2023-04-01T13:45:55.344Z,4.38
2023-04-01T13:53:18.703Z,3.03
2023-04-01T14:00:45.404Z,5.55
2023-04-01T14:08:17.241Z,3.47
2023-04-01T14:15:48.814Z,3.55
2023-04-01T14:23:05.774Z,4.60
2023-04-01T14:30:31.819Z,3.53
2023-04-01T14:37:56.859Z,3.83
2023-04-01T14:45:36.489Z,4.63
2023-04-01T14:52:40.455Z,4.80
2023-04-01T15:00:03.447Z,4.30
2023-04-01T15:07:12.241Z,4.13
2023-04-01T15:14:19.298Z,4.15
2023-04-01T15:21:26.475Z,2.83
2023-04-01T15:28:34.424Z,3.92
2023-04-01T15:35:47.849Z,3.85
2023-04-01T15:43:00.623Z,3.00
2023-04-01T15:50:11.441Z,3.55
2023-04-01T15:57:15.921Z,3.78
2023-04-01T16:05:07.298Z,3.00
2023-04-01T16:12:27.130Z,5.45
2023-04-01T16:20:08.817Z,2.03
2023-04-01T16:27:14.860Z,4.40
2023-04-01T16:34:23.323Z,3.50
2023-04-01T16:41:42.400Z,3.70
2023-04-01T16:49:04.073Z,3.55
2023-04-01T16:56:11.797Z,3.65
2023-04-01T17:03:24.746Z,3.55
2023-04-01T17:10:44.425Z,3.95
2023-04-01T17:18:10.336Z,4.00
2023-04-01T17:25:21.749Z,3.42
2023-04-01T17:32:42.715Z,2.40
2023-04-01T17:40:16.651Z,4.20
2023-04-01T17:47:38.923Z,3.70
2023-04-01T17:54:58.940Z,3.47
2023-04-01T18:02:18.856Z,3.47
2023-04-01T18:09:38.332Z,3.47
2023-04-01T18:16:39.792Z,3.45
2023-04-01T18:24:02.246Z,3.25
2023-04-01T18:31:04.255Z,2.67
2023-04-01T18:38:21.104Z,3.50
2023-04-01T18:45:32.789Z,2.40
2023-04-01T18:52:38.754Z,3.92
2023-04-01T18:59:45.388Z,2.78
2023-04-01T19:06:55.576Z,3.03
2023-04-01T19:14:24.786Z,4.23
2023-04-01T19:21:39.946Z,4.25
2023-04-01T19:29:19.375Z,3.83
2023-04-01T19:36:41.161Z,4.10
2023-04-01T19:44:05.322Z,4.95
2023-04-01T19:51:26.553Z,4.45
2023-04-01T19:58:49.307Z,4.95
2023-04-01T20:06:17.721Z,3.90
2023-04-01T20:13:38.035Z,7.00
2023-04-01T20:20:39.577Z,7.18
2023-04-01T20:27:45.216Z,3.95
2023-04-01T20:35:08.634Z,5.82
2023-04-01T20:42:23.412Z,4.72
2023-04-01T20:50:01.414Z,4.03
2023-04-01T20:57:15.037Z,3.63
2023-04-01T21:04:37.594Z,10.23
2023-04-01T21:11:47.119Z,4.47
2023-04-01T21:19:09.521Z,7.35
2023-04-01T21:26:23.207Z,4.35
2023-04-01T21:33:30.828Z,4.00
2023-04-01T21:40:54.378Z,11.93
2023-04-01T21:48:33.425Z,9.45
2023-04-01T21:56:08.773Z,17.50
2023-04-01T22:03:39.828Z,13.88
2023-04-01T22:11:10.428Z,5.28
2023-04-01T22:18:23.713Z,5.05
2023-04-01T22:25:40.823Z,3.60
2023-04-01T22:32:47.921Z,3.80
2023-04-01T22:40:12.387Z,5.97
2023-04-01T22:47:37.740Z,2.50
2023-04-01T22:54:51.934Z,5.20
2023-04-01T23:01:59.760Z,4.22
2023-04-01T23:09:29.438Z,4.88
2023-04-01T23:16:38.091Z,3.40
2023-04-01T23:23:54.110Z,2.75
2023-04-01T23:30:55.748Z,3.38
2023-04-01T23:37:57.396Z,4.32
2023-04-01T23:45:00.426Z,9.07
2023-04-01T23:52:14.509Z,4.63
2023-04-01T23:59:23.359Z,5.72
